Sao Pedro do Piaui, Brazil
Current Conditions -  °F | °C
As of 3:00 AM on Sunday 26 Oct 2014 (Local Time) from SBTE Reporting Station
Clear Clear  
Wind Chill: 25°   Ceiling: Unl
Heat Index: 26°   Visibility: 6mi
Dew Point: 20°   Wind: 3mph
Humidity: 74%   Direction: 310°NW
Pressure: 29.77"   Gusts: NA
Location:  5.93°S, 42.72°W
Report Text: SBTE 260600Z 31003KT CAVOK 25/20 Q1008
Loading
Personal Weather Stations






























Interactive Weather Map
Tropical Storm Tracking
New forecast layout! Learn more

10-Day Weather Forecast

Advertisements
Track Severe Weather on mobile